Zhangqiu, China
Current Conditions -  °F | °C
As of 9:00 AM on Monday 22 Dec 2014 (Local Time) from ZSJN Reporting Station
Clear Clear  
Wind Chill: 29°   Ceiling: Unl
Heat Index: 36°   Visibility: 6mi
Dew Point:   Wind: 9mph
Humidity: 28%   Direction: 230°SW
Pressure: 30.33"   Gusts: NA
Location:  36.72°N, 117.5°E
Report Text: ZSJN 220100Z 23004MPS CAVOK 02/M15 Q1027 NOSIG
Loading
Personal Weather Stations






























Interactive Weather Map New forecast layout! Learn more

10-Day Weather Forecast

Advertisements
Track Severe Weather on mobile